createdAt,value
2018-08-09T00:00:40.899Z,3.90
2018-08-09T00:03:16.119Z,3.67
2018-08-09T00:05:51.264Z,4.10
2018-08-09T00:08:26.259Z,3.70
2018-08-09T00:11:01.289Z,4.00
2018-08-09T00:13:36.126Z,4.57
2018-08-09T00:16:11.265Z,4.33
2018-08-09T00:18:46.369Z,4.00
2018-08-09T00:21:21.988Z,3.83
2018-08-09T00:23:57.238Z,3.83
2018-08-09T00:26:32.136Z,3.60
2018-08-09T00:29:07.127Z,3.60
2018-08-09T00:31:42.107Z,3.83
2018-08-09T00:34:17.145Z,4.10
2018-08-09T00:36:52.073Z,3.50
2018-08-09T00:39:27.504Z,3.97
2018-08-09T00:42:02.430Z,3.87
2018-08-09T00:44:37.298Z,3.93
2018-08-09T00:47:19.283Z,3.97
2018-08-09T00:49:54.094Z,4.37
2018-08-09T00:52:28.844Z,3.80
2018-08-09T00:55:01.721Z,4.50
2018-08-09T00:57:37.528Z,4.80
2018-08-09T01:00:12.404Z,4.80
2018-08-09T01:02:47.700Z,4.20
2018-08-09T01:05:22.564Z,4.07
2018-08-09T01:07:57.491Z,4.57
2018-08-09T01:10:32.317Z,3.90
2018-08-09T01:13:07.682Z,4.07
2018-08-09T01:15:42.681Z,4.10
2018-08-09T01:18:17.550Z,4.20
2018-08-09T01:20:53.134Z,4.50
2018-08-09T01:23:27.941Z,4.07
2018-08-09T01:26:03.019Z,4.60
2018-08-09T01:28:37.867Z,4.80
2018-08-09T01:31:13.259Z,4.67
2018-08-09T01:33:48.049Z,4.67
2018-08-09T01:36:23.248Z,4.40
2018-08-09T01:39:01.356Z,4.93
2018-08-09T01:41:36.210Z,4.43
2018-08-09T01:44:12.112Z,4.93
2018-08-09T01:46:47.634Z,4.60
2018-08-09T01:49:23.746Z,5.10
2018-08-09T01:51:58.642Z,4.97
2018-08-09T01:54:33.505Z,4.60
2018-08-09T01:57:08.827Z,4.97
2018-08-09T01:59:43.567Z,5.00
2018-08-09T02:02:18.619Z,5.30
2018-08-09T02:04:53.764Z,5.03
2018-08-09T02:07:29.347Z,5.10
2018-08-09T02:10:05.209Z,5.00
2018-08-09T02:12:40.273Z,5.43
2018-08-09T02:15:15.365Z,5.13
2018-08-09T02:17:50.489Z,4.80
2018-08-09T02:20:25.844Z,5.37
2018-08-09T02:23:00.675Z,5.43
2018-08-09T02:25:36.454Z,5.20
2018-08-09T02:28:11.382Z,5.27
2018-08-09T02:30:46.601Z,6.00
2018-08-09T02:33:21.399Z,5.50
2018-08-09T02:35:56.715Z,5.50
2018-08-09T02:38:32.414Z,5.47
2018-08-09T02:41:07.601Z,5.27
2018-08-09T02:43:42.437Z,5.87
2018-08-09T02:46:17.325Z,4.50
2018-08-09T02:48:52.270Z,5.47
2018-08-09T02:51:27.458Z,5.50
2018-08-09T02:54:02.561Z,5.57
2018-08-09T02:56:37.628Z,6.00
2018-08-09T02:59:12.789Z,5.70
2018-08-09T03:01:47.734Z,5.20
2018-08-09T03:04:22.911Z,5.37
2018-08-09T03:06:58.567Z,5.57
2018-08-09T03:09:33.527Z,6.00
2018-08-09T03:12:08.411Z,6.03
2018-08-09T03:14:43.332Z,5.73
2018-08-09T03:17:18.353Z,5.27
2018-08-09T03:19:53.430Z,5.83
2018-08-09T03:22:28.425Z,5.73
2018-08-09T03:25:03.345Z,5.50
2018-08-09T03:27:38.374Z,6.47
2018-08-09T03:30:13.119Z,6.10
2018-08-09T03:32:48.482Z,5.77
2018-08-09T03:35:23.553Z,4.90
2018-08-09T03:37:58.576Z,5.70
2018-08-09T03:40:33.297Z,4.80
2018-08-09T03:43:09.102Z,5.30
2018-08-09T03:45:43.834Z,5.30
2018-08-09T03:48:18.934Z,5.17
2018-08-09T03:50:53.759Z,5.07
2018-08-09T03:53:28.809Z,5.57
2018-08-09T03:56:04.330Z,5.53
2018-08-09T03:58:39.755Z,5.50
2018-08-09T04:01:14.588Z,5.00
2018-08-09T04:03:49.808Z,5.83
2018-08-09T04:06:25.711Z,5.33
2018-08-09T04:09:00.522Z,5.13
2018-08-09T04:11:29.860Z,5.63
2018-08-09T04:14:04.882Z,5.30
2018-08-09T04:16:39.922Z,4.70
2018-08-09T04:19:14.854Z,5.37
2018-08-09T04:21:49.765Z,5.23
2018-08-09T04:24:24.754Z,5.27
2018-08-09T04:27:00.265Z,5.10
2018-08-09T04:29:35.351Z,5.13
2018-08-09T04:32:10.333Z,4.80
2018-08-09T04:34:45.128Z,5.53
2018-08-09T04:37:20.563Z,5.70
2018-08-09T04:39:55.617Z,5.40
2018-08-09T04:42:30.634Z,5.30
2018-08-09T04:45:06.328Z,4.83
2018-08-09T04:47:41.463Z,5.60
2018-08-09T04:50:16.564Z,5.07
2018-08-09T04:52:51.610Z,5.77
2018-08-09T04:55:26.838Z,5.53
2018-08-09T04:58:01.823Z,5.60
2018-08-09T05:00:36.823Z,5.73
2018-08-09T05:03:11.751Z,5.60
2018-08-09T05:05:46.998Z,6.03
2018-08-09T05:08:22.006Z,5.60
2018-08-09T05:10:59.823Z,5.47
2018-08-09T05:13:34.751Z,6.30
2018-08-09T05:16:10.666Z,6.20
2018-08-09T05:18:45.740Z,6.33
2018-08-09T05:21:20.660Z,5.70
2018-08-09T05:23:56.336Z,5.93
2018-08-09T05:26:31.228Z,6.03
2018-08-09T05:29:06.715Z,6.10
2018-08-09T05:31:41.510Z,6.03
2018-08-09T05:34:17.097Z,6.30
2018-08-09T05:36:52.527Z,6.27
2018-08-09T05:39:27.523Z,5.93
2018-08-09T05:42:03.203Z,7.20
2018-08-09T05:44:38.236Z,7.20
2018-08-09T05:47:13.161Z,6.63
2018-08-09T05:49:48.114Z,7.30
2018-08-09T05:52:23.313Z,7.47
2018-08-09T05:54:58.116Z,7.60
2018-08-09T05:57:32.946Z,6.80
2018-08-09T06:00:09.416Z,6.87
2018-08-09T06:02:44.399Z,6.90
2018-08-09T06:05:19.879Z,6.50
2018-08-09T06:07:54.768Z,6.97
2018-08-09T06:10:29.997Z,6.40
2018-08-09T06:13:04.810Z,7.23
2018-08-09T06:15:39.811Z,7.73
2018-08-09T06:18:15.247Z,7.53
2018-08-09T06:20:50.399Z,7.00
2018-08-09T06:23:25.274Z,7.27
2018-08-09T06:26:00.347Z,7.57
2018-08-09T06:28:35.734Z,7.27
2018-08-09T06:31:11.498Z,6.77
2018-08-09T06:33:46.570Z,7.73
2018-08-09T06:36:22.144Z,7.77
2018-08-09T06:38:57.887Z,7.43
2018-08-09T06:41:33.027Z,7.80
2018-08-09T06:44:08.472Z,8.33
2018-08-09T06:46:43.234Z,7.40
2018-08-09T06:49:19.010Z,7.90
2018-08-09T06:51:54.039Z,7.90
2018-08-09T06:54:29.616Z,7.50
2018-08-09T06:57:05.337Z,7.30
2018-08-09T06:59:41.218Z,7.40
2018-08-09T07:02:16.067Z,6.67
2018-08-09T07:04:51.631Z,7.50
2018-08-09T07:07:27.642Z,7.60
2018-08-09T07:10:02.678Z,7.80
2018-08-09T07:12:37.579Z,7.83
2018-08-09T07:15:13.697Z,7.87
2018-08-09T07:17:48.454Z,6.93
2018-08-09T07:20:23.914Z,6.60
2018-08-09T07:22:59.016Z,6.47
2018-08-09T07:25:34.178Z,5.97
2018-08-09T07:28:09.388Z,5.33
2018-08-09T07:30:44.501Z,5.83
2018-08-09T07:33:20.033Z,6.90
2018-08-09T07:35:56.118Z,6.50
2018-08-09T07:38:30.938Z,6.40
2018-08-09T07:41:06.095Z,5.93
2018-08-09T07:43:41.257Z,6.07
2018-08-09T07:46:20.398Z,6.60
2018-08-09T07:48:55.543Z,6.47
2018-08-09T07:51:34.756Z,6.73
2018-08-09T07:54:14.419Z,7.00
2018-08-09T07:56:49.467Z,6.20
2018-08-09T07:59:26.412Z,6.80
2018-08-09T08:02:01.891Z,5.83
2018-08-09T08:04:36.894Z,6.27
2018-08-09T08:07:13.804Z,6.23
2018-08-09T08:09:48.867Z,5.90
2018-08-09T08:12:24.249Z,6.80
2018-08-09T08:14:59.516Z,7.00
2018-08-09T08:17:34.807Z,6.80
2018-08-09T08:20:10.477Z,7.27
2018-08-09T08:22:45.387Z,7.20
2018-08-09T08:25:21.551Z,8.27
2018-08-09T08:27:57.036Z,8.23
2018-08-09T08:30:32.514Z,6.90
2018-08-09T08:33:07.887Z,7.10
2018-08-09T08:35:43.379Z,7.27
2018-08-09T08:38:19.566Z,7.33
2018-08-09T08:40:54.680Z,7.20
2018-08-09T08:43:29.593Z,7.50
2018-08-09T08:46:05.260Z,7.97
2018-08-09T08:48:40.274Z,7.20
2018-08-09T08:51:15.692Z,7.80
2018-08-09T08:53:50.676Z,8.33
2018-08-09T08:56:25.978Z,6.97
2018-08-09T08:59:01.282Z,7.37
2018-08-09T09:01:36.462Z,7.27
2018-08-09T09:04:11.750Z,6.97
2018-08-09T09:06:47.315Z,6.60
2018-08-09T09:09:23.222Z,6.20
2018-08-09T09:11:58.612Z,6.90
2018-08-09T09:14:33.891Z,6.80
2018-08-09T09:17:08.960Z,6.37
2018-08-09T09:19:44.203Z,6.50
2018-08-09T09:22:19.647Z,6.00
2018-08-09T09:24:54.719Z,5.67
2018-08-09T09:27:30.000Z,6.30
2018-08-09T09:30:07.217Z,5.97
2018-08-09T09:32:42.655Z,5.97
2018-08-09T09:35:17.522Z,6.90
2018-08-09T09:37:54.010Z,6.13
2018-08-09T09:40:28.919Z,6.00
2018-08-09T09:43:03.661Z,6.90
2018-08-09T09:45:38.793Z,8.90
2018-08-09T09:48:13.983Z,12.70
2018-08-09T09:50:48.709Z,16.20
2018-08-09T09:53:24.467Z,15.80
2018-08-09T09:55:59.607Z,17.50
2018-08-09T09:58:34.853Z,14.47
2018-08-09T10:01:15.043Z,17.63
2018-08-09T10:03:50.072Z,15.70
2018-08-09T10:06:25.616Z,13.67
2018-08-09T10:09:03.644Z,14.30
2018-08-09T10:11:38.496Z,15.30
2018-08-09T10:14:13.481Z,14.40
2018-08-09T10:16:48.407Z,13.73
2018-08-09T10:19:23.619Z,13.07
2018-08-09T10:21:58.593Z,12.30
2018-08-09T10:24:33.661Z,12.03
2018-08-09T10:27:08.830Z,11.40
2018-08-09T10:29:44.087Z,10.70
2018-08-09T10:32:19.351Z,12.47
2018-08-09T10:34:54.282Z,11.10
2018-08-09T10:37:29.964Z,11.50
2018-08-09T10:40:05.639Z,11.00
2018-08-09T10:42:40.875Z,11.50
2018-08-09T10:45:15.857Z,11.57
2018-08-09T10:47:51.238Z,11.37
2018-08-09T10:50:26.740Z,11.43
2018-08-09T10:53:01.620Z,11.70
2018-08-09T10:55:36.541Z,11.20
2018-08-09T10:58:11.536Z,12.20
2018-08-09T11:00:46.648Z,10.70
2018-08-09T11:03:22.011Z,11.80
2018-08-09T11:05:58.147Z,11.40
2018-08-09T11:08:33.413Z,11.87
2018-08-09T11:11:14.237Z,12.70
2018-08-09T11:13:49.340Z,12.53
2018-08-09T11:16:24.466Z,11.97
2018-08-09T11:18:59.547Z,10.90
2018-08-09T11:21:34.563Z,11.10
2018-08-09T11:24:09.937Z,11.10
2018-08-09T11:26:45.490Z,11.73
2018-08-09T11:29:21.097Z,11.17
2018-08-09T11:31:55.858Z,11.70
2018-08-09T11:34:30.964Z,12.00
2018-08-09T11:37:06.223Z,13.00
2018-08-09T11:39:41.512Z,11.50
2018-08-09T11:42:16.667Z,13.20
2018-08-09T11:44:51.611Z,12.90
2018-08-09T11:47:26.664Z,12.07
2018-08-09T11:50:01.804Z,10.90
2018-08-09T11:52:36.846Z,11.33
2018-08-09T11:55:11.800Z,11.50
2018-08-09T11:57:46.675Z,11.07
2018-08-09T12:00:21.754Z,11.30
2018-08-09T12:02:59.888Z,11.20
2018-08-09T12:05:35.570Z,10.53
2018-08-09T12:08:11.402Z,12.07
2018-08-09T12:10:46.370Z,10.63
2018-08-09T12:13:22.112Z,11.73
2018-08-09T12:15:57.730Z,11.40
2018-08-09T12:18:32.810Z,11.23
2018-08-09T12:21:07.898Z,11.53
2018-08-09T12:23:43.302Z,10.30
2018-08-09T12:26:19.268Z,11.53
2018-08-09T12:28:54.598Z,10.70
2018-08-09T12:31:29.724Z,11.30
2018-08-09T12:34:05.180Z,11.47
2018-08-09T12:36:40.366Z,11.40
2018-08-09T12:39:16.329Z,10.63
2018-08-09T12:41:52.261Z,11.50
2018-08-09T12:44:27.462Z,11.37
2018-08-09T12:47:02.575Z,11.03
2018-08-09T12:49:37.726Z,11.27
2018-08-09T12:52:12.812Z,13.87
2018-08-09T12:54:48.792Z,13.90
2018-08-09T12:57:23.926Z,15.50
2018-08-09T13:00:00.009Z,15.73
2018-08-09T13:02:35.421Z,16.23
2018-08-09T13:05:11.860Z,17.20
2018-08-09T13:07:47.281Z,15.97
2018-08-09T13:10:22.318Z,15.40
2018-08-09T13:12:57.462Z,15.13
2018-08-09T13:15:32.587Z,15.47
2018-08-09T13:18:08.589Z,16.13
2018-08-09T13:20:43.731Z,15.07
2018-08-09T13:23:18.784Z,14.13
2018-08-09T13:25:54.096Z,14.10
2018-08-09T13:28:29.755Z,13.50
2018-08-09T13:31:05.459Z,13.80
2018-08-09T13:33:41.092Z,13.20
2018-08-09T13:36:16.876Z,11.33
2018-08-09T13:38:52.430Z,11.10
2018-08-09T13:41:27.393Z,9.37
2018-08-09T13:44:03.037Z,7.63
2018-08-09T13:46:38.283Z,6.87
2018-08-09T13:49:14.240Z,6.70
2018-08-09T13:51:50.122Z,5.80
2018-08-09T13:54:25.088Z,5.47
2018-08-09T13:57:00.280Z,5.20
2018-08-09T13:59:35.621Z,6.03
2018-08-09T14:02:10.527Z,6.13
2018-08-09T14:04:46.047Z,5.10
2018-08-09T14:07:22.475Z,4.83
2018-08-09T14:09:59.159Z,4.50
2018-08-09T14:12:34.197Z,4.70
2018-08-09T14:15:16.125Z,4.30
2018-08-09T14:17:51.197Z,3.97
2018-08-09T14:20:26.274Z,4.20
2018-08-09T14:23:02.153Z,4.40
2018-08-09T14:25:38.105Z,3.57
2018-08-09T14:28:13.994Z,4.20
2018-08-09T14:30:49.215Z,4.10
2018-08-09T14:33:25.055Z,3.97
2018-08-09T14:36:00.090Z,3.50
2018-08-09T14:38:35.235Z,3.97
2018-08-09T14:41:11.424Z,4.30
2018-08-09T14:43:46.386Z,4.40
2018-08-09T14:46:21.648Z,4.43
2018-08-09T14:48:56.948Z,4.20
2018-08-09T14:51:32.226Z,5.00
2018-08-09T14:54:07.051Z,4.90
2018-08-09T14:56:42.459Z,5.40
2018-08-09T14:59:17.555Z,4.73
2018-08-09T15:01:52.561Z,6.03
2018-08-09T15:04:27.469Z,6.63
2018-08-09T15:07:02.427Z,7.10
2018-08-09T15:09:37.892Z,7.70
2018-08-09T15:12:13.121Z,7.00
2018-08-09T15:14:48.138Z,7.30
2018-08-09T15:17:23.468Z,7.20
2018-08-09T15:19:59.267Z,8.37
2018-08-09T15:22:35.199Z,7.63
2018-08-09T15:25:11.091Z,7.53
2018-08-09T15:27:46.870Z,7.10
2018-08-09T15:30:22.179Z,7.00
2018-08-09T15:32:57.422Z,7.40
2018-08-09T15:35:32.588Z,7.10
2018-08-09T15:38:07.777Z,6.13
2018-08-09T15:40:43.122Z,6.33
2018-08-09T15:43:18.167Z,6.30
2018-08-09T15:45:53.730Z,6.70
2018-08-09T15:48:29.376Z,6.40
2018-08-09T15:51:04.775Z,6.20
2018-08-09T15:53:40.356Z,5.93
2018-08-09T15:56:16.071Z,5.20
2018-08-09T15:58:51.304Z,4.30
2018-08-09T16:01:30.798Z,5.03
2018-08-09T16:04:06.274Z,4.63
2018-08-09T16:06:41.333Z,4.67
2018-08-09T16:09:18.270Z,4.40
2018-08-09T16:11:53.380Z,4.83
2018-08-09T16:14:29.272Z,4.20
2018-08-09T16:17:04.628Z,4.20
2018-08-09T16:19:40.573Z,4.40
2018-08-09T16:22:16.075Z,4.30
2018-08-09T16:24:51.445Z,4.27
2018-08-09T16:27:26.703Z,4.70
2018-08-09T16:30:02.413Z,5.00
2018-08-09T16:32:37.921Z,3.93
2018-08-09T16:35:13.722Z,3.63
2018-08-09T16:37:49.047Z,4.30
2018-08-09T16:40:26.217Z,4.50
2018-08-09T16:43:01.448Z,4.03
2018-08-09T16:45:36.566Z,4.43
2018-08-09T16:48:11.669Z,4.20
2018-08-09T16:50:47.044Z,4.60
2018-08-09T16:53:22.418Z,4.20
2018-08-09T16:55:57.371Z,4.40
2018-08-09T16:58:32.587Z,4.10
2018-08-09T17:01:08.108Z,4.40
2018-08-09T17:03:43.064Z,3.87
2018-08-09T17:06:18.259Z,4.53
2018-08-09T17:08:54.469Z,4.87
2018-08-09T17:11:29.778Z,4.33
2018-08-09T17:14:05.123Z,4.60
2018-08-09T17:16:40.303Z,4.07
2018-08-09T17:19:15.520Z,4.07
2018-08-09T17:21:50.676Z,3.90
2018-08-09T17:24:25.706Z,3.80
2018-08-09T17:27:00.652Z,4.40
2018-08-09T17:29:36.104Z,3.87
2018-08-09T17:32:11.365Z,4.43
2018-08-09T17:34:46.594Z,3.80
2018-08-09T17:37:22.039Z,4.10
2018-08-09T17:39:57.712Z,3.60
2018-08-09T17:42:32.724Z,4.17
2018-08-09T17:45:09.954Z,3.53
2018-08-09T17:47:45.712Z,3.60
2018-08-09T17:50:20.982Z,3.93
2018-08-09T17:52:57.711Z,4.20
2018-08-09T17:55:33.445Z,3.60
2018-08-09T17:58:08.536Z,4.13
2018-08-09T18:00:43.520Z,4.40
2018-08-09T18:03:18.675Z,4.10
2018-08-09T18:05:53.830Z,3.60
2018-08-09T18:08:28.936Z,3.60
2018-08-09T18:11:04.191Z,3.80
2018-08-09T18:13:39.190Z,3.97
2018-08-09T18:16:14.537Z,3.93
2018-08-09T18:18:49.480Z,4.50
2018-08-09T18:21:24.527Z,4.03
2018-08-09T18:23:59.847Z,3.27
2018-08-09T18:26:35.928Z,4.20
2018-08-09T18:29:11.027Z,4.30
2018-08-09T18:31:46.546Z,5.10
2018-08-09T18:34:22.282Z,4.97
2018-08-09T18:36:57.291Z,4.43
2018-08-09T18:39:32.233Z,5.03
2018-08-09T18:42:07.678Z,4.43
2018-08-09T18:44:43.183Z,4.50
2018-08-09T18:47:18.203Z,4.90
2018-08-09T18:49:53.265Z,4.27
2018-08-09T18:52:28.292Z,4.23
2018-08-09T18:55:03.688Z,3.93
2018-08-09T18:57:39.129Z,4.13
2018-08-09T19:00:18.598Z,4.67
2018-08-09T19:02:54.003Z,4.27
2018-08-09T19:05:35.728Z,4.43
2018-08-09T19:08:10.871Z,4.87
2018-08-09T19:10:46.142Z,4.77
2018-08-09T19:13:21.857Z,4.40
2018-08-09T19:15:56.886Z,4.30
2018-08-09T19:18:32.415Z,4.53
2018-08-09T19:21:07.894Z,4.87
2018-08-09T19:23:43.541Z,4.23
2018-08-09T19:26:19.064Z,3.27
2018-08-09T19:28:54.720Z,3.90
2018-08-09T19:31:30.139Z,3.57
2018-08-09T19:34:05.511Z,3.80
2018-08-09T19:36:40.846Z,3.90
2018-08-09T19:39:16.305Z,3.87
2018-08-09T19:41:51.907Z,3.47
2018-08-09T19:44:27.310Z,3.00
2018-08-09T19:47:02.467Z,4.23
2018-08-09T19:49:37.673Z,3.10
2018-08-09T19:52:13.185Z,3.80
2018-08-09T19:54:48.492Z,3.80
2018-08-09T19:57:24.123Z,3.63
2018-08-09T20:00:05.494Z,3.80
2018-08-09T20:02:40.837Z,4.90
2018-08-09T20:05:16.094Z,4.53
2018-08-09T20:07:51.202Z,4.20
2018-08-09T20:10:26.202Z,4.17
2018-08-09T20:13:01.533Z,5.10
2018-08-09T20:15:36.795Z,4.70
2018-08-09T20:18:12.065Z,4.97
2018-08-09T20:20:47.058Z,4.73
2018-08-09T20:23:22.443Z,3.70
2018-08-09T20:25:57.991Z,4.00
2018-08-09T20:28:34.562Z,3.40
2018-08-09T20:31:09.962Z,3.10
2018-08-09T20:33:45.095Z,3.47
2018-08-09T20:36:20.490Z,3.20
2018-08-09T20:38:55.739Z,3.60
2018-08-09T20:41:31.237Z,3.90
2018-08-09T20:44:06.627Z,3.60
2018-08-09T20:46:41.480Z,3.50
2018-08-09T20:49:17.111Z,3.10
2018-08-09T20:51:52.802Z,3.17
2018-08-09T20:54:28.165Z,3.47
2018-08-09T20:57:03.559Z,3.40
2018-08-09T20:59:45.288Z,3.20
2018-08-09T21:02:20.456Z,3.80
2018-08-09T21:04:55.522Z,3.53
2018-08-09T21:07:31.650Z,3.23
2018-08-09T21:10:07.327Z,3.60
2018-08-09T21:12:42.441Z,3.33
2018-08-09T21:15:18.803Z,3.30
2018-08-09T21:17:53.886Z,2.37
2018-08-09T21:20:28.998Z,2.50
2018-08-09T21:23:04.134Z,2.30
2018-08-09T21:25:39.265Z,3.00
2018-08-09T21:28:14.376Z,2.80
2018-08-09T21:30:49.442Z,2.60
2018-08-09T21:33:25.062Z,2.57
2018-08-09T21:36:00.200Z,2.50
2018-08-09T21:38:35.559Z,2.47
2018-08-09T21:41:10.584Z,2.10
2018-08-09T21:43:45.683Z,2.80
2018-08-09T21:46:20.855Z,2.53
2018-08-09T21:48:56.165Z,2.43
2018-08-09T21:51:31.691Z,2.53
2018-08-09T21:54:06.776Z,2.30
2018-08-09T21:56:42.431Z,2.30
2018-08-09T21:59:17.829Z,2.50
2018-08-09T22:01:53.578Z,2.83
2018-08-09T22:04:28.413Z,2.57
2018-08-09T22:07:09.011Z,2.30
2018-08-09T22:09:49.229Z,2.37
2018-08-09T22:12:29.517Z,2.40
2018-08-09T22:15:10.375Z,2.00
2018-08-09T22:17:50.466Z,2.17
2018-08-09T22:20:30.724Z,2.53
2018-08-09T22:23:06.307Z,2.50
2018-08-09T22:25:41.389Z,2.43
2018-08-09T22:28:16.783Z,2.70
2018-08-09T22:30:52.074Z,2.83
2018-08-09T22:33:27.323Z,3.63
2018-08-09T22:36:02.600Z,3.13
2018-08-09T22:38:37.744Z,3.50
2018-08-09T22:41:12.767Z,3.40
2018-08-09T22:43:47.642Z,4.43
2018-08-09T22:46:23.060Z,3.50
2018-08-09T22:48:58.049Z,4.20
2018-08-09T22:51:33.189Z,4.70
2018-08-09T22:54:08.409Z,4.03
2018-08-09T22:56:43.312Z,4.27
2018-08-09T22:59:18.759Z,4.13
2018-08-09T23:01:53.922Z,4.23
2018-08-09T23:04:28.914Z,4.20
2018-08-09T23:07:04.827Z,3.70
2018-08-09T23:09:39.573Z,3.40
2018-08-09T23:12:14.694Z,3.80
2018-08-09T23:14:49.614Z,3.80
2018-08-09T23:17:24.455Z,3.67
2018-08-09T23:19:59.444Z,3.70
2018-08-09T23:22:34.564Z,3.93
2018-08-09T23:25:13.240Z,3.63
2018-08-09T23:27:48.170Z,3.80
2018-08-09T23:30:23.154Z,4.20
2018-08-09T23:32:58.356Z,3.70
2018-08-09T23:35:34.278Z,3.77
2018-08-09T23:38:09.691Z,3.90
2018-08-09T23:40:44.664Z,3.80
2018-08-09T23:43:19.921Z,4.00
2018-08-09T23:45:54.856Z,3.53
2018-08-09T23:48:30.455Z,3.83
2018-08-09T23:51:05.411Z,3.27
2018-08-09T23:53:40.767Z,3.03
2018-08-09T23:56:15.915Z,3.07
2018-08-09T23:58:51.109Z,2.90
